Pescabona 6 — CNA — position and weather

sailwx.info

Track history (hours):
 
Tides and Currents Weather Stations Pressure Air Temp Water Temp Dewpoint Dewpoint Depression Visibility Wind Speed Wind Dir Waves Ship Positions

Pescabona 6

Last reported at 2017-Oct-10 22:13 UTC. Time now 2017-Oct-19 22:01 UTC.
Position N 34°52' W 006°41'.
Warning: this ship's position is 8 days out of date.

Length 10 m; draft 10 m.

Type: Ship. MMSI: 242049100.

Date/timePositionNaut miles runAvg speedWind from/ knotsBaromVisibWave heightAir tempDewpointWater temp
2017-Oct-10 22:13N 34°52' W 006°41'1 3.4
2017-Oct-10 22:00N 34°51' W 006°42'3 3.3
2017-Oct-10 21:00N 34°48' W 006°44'3 3.9
2017-Oct-10 20:08N 34°46' W 006°47'1 9.2
2017-Oct-10 20:00N 34°45' W 006°48'4 8.7
2017-Oct-10 19:30N 34°42' W 006°52'10 3.2
2017-Oct-10 16:28N 34°33' W 006°57'10 2.9
2017-Oct-10 13:08N 34°23' W 006°59'1 3.0
2017-Oct-10 12:56N 34°23' W 006°59'3 1.2
2017-Oct-10 10:40N 34°25' W 006°59'1 2.9
2017-Oct-10 10:28N 34°26' W 006°59'31 1.6
2017-Oct-09 14:29N 34°57' W 006°54'2 3.0
2017-Oct-09 13:55N 34°56' W 006°52'4 7.8
2017-Oct-09 13:26N 34°53' W 006°50'19 1.0
2017-Oct-08 17:31N 34°34' W 006°56'0 3.1
2017-Oct-08 17:24N 34°34' W 006°56'2 3.1
2017-Oct-08 16:47N 34°32' W 006°57'1 3.1
2017-Oct-08 16:29N 34°31' W 006°57'4 3.0
2017-Oct-08 15:08N 34°27' W 006°58'9 0.8
2017-Oct-08 03:44N 34°36' W 006°56'1 3.0
2017-Oct-08 03:30N 34°36' W 006°56'1 3.0
2017-Oct-08 03:01N 34°34' W 006°56'2 3.0
2017-Oct-08 02:31N 34°33' W 006°57'4 3.0
2017-Oct-08 01:06N 34°28' W 006°58'0 3.1
2017-Oct-08 01:00N 34°28' W 006°58'2 3.0
2017-Oct-08 00:28N 34°27' W 006°59'12 1.9
2017-Oct-07 18:09N 34°38' W 006°56'1 3.1
2017-Oct-07 17:55N 34°37' W 006°56'1 3.1
2017-Oct-07 17:30N 34°36' W 006°56'2 3.1
2017-Oct-07 17:00N 34°35' W 006°56'2 3.0
2017-Oct-07 16:30N 34°33' W 006°56'2 3.0
2017-Oct-07 16:00N 34°32' W 006°57'1 3.0
2017-Oct-07 15:30N 34°30' W 006°57'2 2.9
2017-Oct-07 14:43N 34°28' W 006°58'15 0.7
2017-Oct-06 17:18N 34°43' W 006°55'1 2.5
2017-Oct-06 16:49N 34°41' W 006°55'1 2.1
2017-Oct-06 16:22N 34°40' W 006°55'2 2.8
2017-Oct-06 15:50N 34°39' W 006°56'2 3.1
2017-Oct-06 15:17N 34°37' W 006°56'1 3.1
2017-Oct-06 14:59N 34°36' W 006°56'2 3.1
2017-Oct-06 14:28N 34°35' W 006°56'1 3.1
2017-Oct-06 13:59N 34°33' W 006°56'  
2017-Oct-04 02:33N 34°56' W 006°55'0 3.1
2017-Oct-04 02:30N 34°55' W 006°55'1 3.0
2017-Oct-04 02:00N 34°54' W 006°56'13 0.3
2017-Oct-02 09:36N 34°42' W 006°54'1 3.3
2017-Oct-02 09:25N 34°41' W 006°53'1 3.2
2017-Oct-02 09:00N 34°40' W 006°53'2 3.3
2017-Oct-02 08:27N 34°38' W 006°54'4 3.1
2017-Oct-02 07:01N 34°34' W 006°56'0 3.5
2017-Oct-02 07:00N 34°34' W 006°56'1 3.0
2017-Oct-02 06:30N 34°33' W 006°57'1 3.0
2017-Oct-02 06:00N 34°31' W 006°57'  
Track history (hours):
 
Tides and Currents Weather Stations Pressure Air Temp Water Temp Dewpoint Dewpoint Depression Visibility Wind Speed Wind Dir Waves Ship Positions

Pescabona 6

Last reported at 2017-Oct-10 22:13 UTC. Time now 2017-Oct-19 22:01 UTC.
Position N 34°52' W 006°41'.
Warning: this ship's position is 8 days out of date.

Length 10 m; draft 10 m.

Type: Ship. MMSI: 242049100.

Date/timePositionNaut miles runAvg speedWind from/ knotsBaromVisibWave heightAir tempDewpointWater temp
2017-Oct-10 22:13N 34°52' W 006°41'1 3.4
2017-Oct-10 22:00N 34°51' W 006°42'3 3.3
2017-Oct-10 21:00N 34°48' W 006°44'3 3.9
2017-Oct-10 20:08N 34°46' W 006°47'1 9.2
2017-Oct-10 20:00N 34°45' W 006°48'4 8.7
2017-Oct-10 19:30N 34°42' W 006°52'10 3.2
2017-Oct-10 16:28N 34°33' W 006°57'10 2.9
2017-Oct-10 13:08N 34°23' W 006°59'1 3.0
2017-Oct-10 12:56N 34°23' W 006°59'3 1.2
2017-Oct-10 10:40N 34°25' W 006°59'1 2.9
2017-Oct-10 10:28N 34°26' W 006°59'31 1.6
2017-Oct-09 14:29N 34°57' W 006°54'2 3.0
2017-Oct-09 13:55N 34°56' W 006°52'4 7.8
2017-Oct-09 13:26N 34°53' W 006°50'19 1.0
2017-Oct-08 17:31N 34°34' W 006°56'0 3.1
2017-Oct-08 17:24N 34°34' W 006°56'2 3.1
2017-Oct-08 16:47N 34°32' W 006°57'1 3.1
2017-Oct-08 16:29N 34°31' W 006°57'4 3.0
2017-Oct-08 15:08N 34°27' W 006°58'9 0.8
2017-Oct-08 03:44N 34°36' W 006°56'1 3.0
2017-Oct-08 03:30N 34°36' W 006°56'1 3.0
2017-Oct-08 03:01N 34°34' W 006°56'2 3.0
2017-Oct-08 02:31N 34°33' W 006°57'4 3.0
2017-Oct-08 01:06N 34°28' W 006°58'0 3.1
2017-Oct-08 01:00N 34°28' W 006°58'2 3.0
2017-Oct-08 00:28N 34°27' W 006°59'12 1.9
2017-Oct-07 18:09N 34°38' W 006°56'1 3.1
2017-Oct-07 17:55N 34°37' W 006°56'1 3.1
2017-Oct-07 17:30N 34°36' W 006°56'2 3.1
2017-Oct-07 17:00N 34°35' W 006°56'2 3.0
2017-Oct-07 16:30N 34°33' W 006°56'2 3.0
2017-Oct-07 16:00N 34°32' W 006°57'1 3.0
2017-Oct-07 15:30N 34°30' W 006°57'2 2.9
2017-Oct-07 14:43N 34°28' W 006°58'15 0.7
2017-Oct-06 17:18N 34°43' W 006°55'1 2.5
2017-Oct-06 16:49N 34°41' W 006°55'1 2.1
2017-Oct-06 16:22N 34°40' W 006°55'2 2.8
2017-Oct-06 15:50N 34°39' W 006°56'2 3.1
2017-Oct-06 15:17N 34°37' W 006°56'1 3.1
2017-Oct-06 14:59N 34°36' W 006°56'2 3.1
2017-Oct-06 14:28N 34°35' W 006°56'1 3.1
2017-Oct-06 13:59N 34°33' W 006°56'  
2017-Oct-04 02:33N 34°56' W 006°55'0 3.1
2017-Oct-04 02:30N 34°55' W 006°55'1 3.0
2017-Oct-04 02:00N 34°54' W 006°56'13 0.3
2017-Oct-02 09:36N 34°42' W 006°54'1 3.3
2017-Oct-02 09:25N 34°41' W 006°53'1 3.2
2017-Oct-02 09:00N 34°40' W 006°53'2 3.3
2017-Oct-02 08:27N 34°38' W 006°54'4 3.1
2017-Oct-02 07:01N 34°34' W 006°56'0 3.5
2017-Oct-02 07:00N 34°34' W 006°56'1 3.0
2017-Oct-02 06:30N 34°33' W 006°57'1 3.0
2017-Oct-02 06:00N 34°31' W 006°57'  

Dump ship's entire track history